sensor_id;sensor_type;location;lat;lon;timestamp;pressure;altitude;pressure_sealevel;temperature;humidity
67345;BME280;54230;52.402;6.276;2023-08-31T00:00:00;100720.0;;;14.4;72.2
67345;BME280;54230;52.402;6.276;2023-08-31T00:05:00;100720.0;;;14.5;72.0
67345;BME280;54230;52.402;6.276;2023-08-31T00:10:00;100720.0;;;14.5;71.9
67345;BME280;54230;52.402;6.276;2023-08-31T00:15:00;100710.0;;;14.5;72.0
67345;BME280;54230;52.402;6.276;2023-08-31T00:20:00;100710.0;;;14.6;71.8
67345;BME280;54230;52.402;6.276;2023-08-31T00:25:00;100710.0;;;14.5;71.8
67345;BME280;54230;52.402;6.276;2023-08-31T00:30:00;100710.0;;;14.5;72.0
67345;BME280;54230;52.402;6.276;2023-08-31T00:35:00;100700.0;;;14.5;72.0
67345;BME280;54230;52.402;6.276;2023-08-31T00:40:00;100720.0;;;14.5;72.0
67345;BME280;54230;52.402;6.276;2023-08-31T00:45:00;100720.0;;;14.6;72.0
67345;BME280;54230;52.402;6.276;2023-08-31T00:50:00;100720.0;;;14.6;71.9
67345;BME280;54230;52.402;6.276;2023-08-31T00:55:02;100720.0;;;14.6;71.9
67345;BME280;54230;52.402;6.276;2023-08-31T01:00:00;100720.0;;;14.6;72.0
67345;BME280;54230;52.402;6.276;2023-08-31T01:05:04;100720.0;;;14.6;71.9
67345;BME280;54230;52.402;6.276;2023-08-31T01:10:06;100730.0;;;14.6;72.0
67345;BME280;54230;52.402;6.276;2023-08-31T01:15:03;100730.0;;;14.6;72.1
67345;BME280;54230;52.402;6.276;2023-08-31T01:20:01;100740.0;;;14.6;72.2
67345;BME280;54230;52.402;6.276;2023-08-31T01:25:00;100730.0;;;14.6;72.3
67345;BME280;54230;52.402;6.276;2023-08-31T01:30:00;100730.0;;;14.4;73.0
67345;BME280;54230;52.402;6.276;2023-08-31T01:35:01;100730.0;;;14.4;73.8
67345;BME280;54230;52.402;6.276;2023-08-31T01:40:04;100720.0;;;14.3;74.4
67345;BME280;54230;52.402;6.276;2023-08-31T01:45:00;100720.0;;;14.2;75.0
67345;BME280;54230;52.402;6.276;2023-08-31T01:50:00;100710.0;;;14.2;75.4
67345;BME280;54230;52.402;6.276;2023-08-31T01:55:00;100710.0;;;14.1;75.7
67345;BME280;54230;52.402;6.276;2023-08-31T02:00:01;100690.0;;;14.0;76.0
67345;BME280;54230;52.402;6.276;2023-08-31T02:05:01;100680.0;;;14.0;76.5
67345;BME280;54230;52.402;6.276;2023-08-31T02:10:00;100690.0;;;13.8;76.7
67345;BME280;54230;52.402;6.276;2023-08-31T02:15:00;100690.0;;;13.7;77.1
67345;BME280;54230;52.402;6.276;2023-08-31T02:20:00;100700.0;;;13.7;77.6
67345;BME280;54230;52.402;6.276;2023-08-31T02:25:00;100710.0;;;13.7;77.8
67345;BME280;54230;52.402;6.276;2023-08-31T02:30:00;100700.0;;;13.7;77.6
67345;BME280;54230;52.402;6.276;2023-08-31T02:35:01;100710.0;;;13.7;77.9
67345;BME280;54230;52.402;6.276;2023-08-31T02:40:00;100710.0;;;13.7;78.0
67345;BME280;54230;52.402;6.276;2023-08-31T02:45:00;100710.0;;;13.7;78.1
67345;BME280;54230;52.402;6.276;2023-08-31T02:50:00;100710.0;;;13.8;78.2
67345;BME280;54230;52.402;6.276;2023-08-31T02:55:00;100710.0;;;13.8;78.1
67345;BME280;54230;52.402;6.276;2023-08-31T03:00:00;100690.0;;;13.8;78.2
67345;BME280;54230;52.402;6.276;2023-08-31T03:05:00;100690.0;;;13.9;78.0
67345;BME280;54230;52.402;6.276;2023-08-31T03:10:00;100700.0;;;13.9;77.9
67345;BME280;54230;52.402;6.276;2023-08-31T03:15:00;100710.0;;;13.9;77.4
67345;BME280;54230;52.402;6.276;2023-08-31T03:20:00;100700.0;;;13.7;77.4
67345;BME280;54230;52.402;6.276;2023-08-31T03:25:00;100700.0;;;13.6;77.5
67345;BME280;54230;52.402;6.276;2023-08-31T03:30:00;100710.0;;;13.6;77.3
67345;BME280;54230;52.402;6.276;2023-08-31T03:35:01;100700.0;;;13.6;77.1
67345;BME280;54230;52.402;6.276;2023-08-31T03:40:00;100710.0;;;13.5;77.5
67345;BME280;54230;52.402;6.276;2023-08-31T03:45:00;100700.0;;;13.6;77.6
67345;BME280;54230;52.402;6.276;2023-08-31T03:50:00;100700.0;;;13.6;77.5
67345;BME280;54230;52.402;6.276;2023-08-31T03:55:00;100700.0;;;13.6;77.6
67345;BME280;54230;52.402;6.276;2023-08-31T04:00:00;100700.0;;;13.6;77.8
67345;BME280;54230;52.402;6.276;2023-08-31T04:05:00;100700.0;;;13.7;78.0
67345;BME280;54230;52.402;6.276;2023-08-31T04:10:00;100700.0;;;13.6;78.3
67345;BME280;54230;52.402;6.276;2023-08-31T04:15:00;100710.0;;;13.5;78.5
67345;BME280;54230;52.402;6.276;2023-08-31T04:20:00;100720.0;;;13.5;78.8
67345;BME280;54230;52.402;6.276;2023-08-31T04:25:00;100730.0;;;13.5;78.9
67345;BME280;54230;52.402;6.276;2023-08-31T04:30:01;100730.0;;;13.4;79.0
67345;BME280;54230;52.402;6.276;2023-08-31T04:35:01;100730.0;;;13.4;79.2
67345;BME280;54230;52.402;6.276;2023-08-31T04:40:00;100730.0;;;13.5;79.4
67345;BME280;54230;52.402;6.276;2023-08-31T04:45:00;100730.0;;;13.5;79.5
67345;BME280;54230;52.402;6.276;2023-08-31T04:50:00;100720.0;;;13.5;79.6
67345;BME280;54230;52.402;6.276;2023-08-31T04:55:01;100720.0;;;13.5;79.6
67345;BME280;54230;52.402;6.276;2023-08-31T05:00:00;100730.0;;;13.6;79.9
67345;BME280;54230;52.402;6.276;2023-08-31T05:05:00;100740.0;;;13.6;79.9
67345;BME280;54230;52.402;6.276;2023-08-31T05:10:00;100750.0;;;13.7;80.0
67345;BME280;54230;52.402;6.276;2023-08-31T05:15:00;100760.0;;;13.8;80.0
67345;BME280;54230;52.402;6.276;2023-08-31T05:20:00;100760.0;;;13.9;79.7
67345;BME280;54230;52.402;6.276;2023-08-31T05:25:00;100770.0;;;14.0;79.6
67345;BME280;54230;52.402;6.276;2023-08-31T05:30:00;100780.0;;;14.1;79.7
67345;BME280;54230;52.402;6.276;2023-08-31T05:35:00;100780.0;;;14.1;79.5
67345;BME280;54230;52.402;6.276;2023-08-31T05:40:00;100780.0;;;14.2;79.3
67345;BME280;54230;52.402;6.276;2023-08-31T05:45:00;100790.0;;;14.3;79.0
67345;BME280;54230;52.402;6.276;2023-08-31T05:50:00;100790.0;;;14.3;78.8
67345;BME280;54230;52.402;6.276;2023-08-31T05:55:00;100800.0;;;14.4;78.4
67345;BME280;54230;52.402;6.276;2023-08-31T06:00:00;100810.0;;;14.5;78.6
67345;BME280;54230;52.402;6.276;2023-08-31T06:05:00;100810.0;;;14.6;78.5
67345;BME280;54230;52.402;6.276;2023-08-31T06:10:00;100810.0;;;14.8;78.3
67345;BME280;54230;52.402;6.276;2023-08-31T06:15:00;100810.0;;;14.9;78.2
67345;BME280;54230;52.402;6.276;2023-08-31T06:20:01;100820.0;;;15.0;77.9
67345;BME280;54230;52.402;6.276;2023-08-31T06:25:00;100830.0;;;15.1;77.8
67345;BME280;54230;52.402;6.276;2023-08-31T06:30:00;100830.0;;;15.1;77.7
67345;BME280;54230;52.402;6.276;2023-08-31T06:35:00;100830.0;;;15.2;77.6
67345;BME280;54230;52.402;6.276;2023-08-31T06:40:00;100830.0;;;15.4;77.3
67345;BME280;54230;52.402;6.276;2023-08-31T06:45:00;100840.0;;;15.5;77.0
67345;BME280;54230;52.402;6.276;2023-08-31T06:50:00;100840.0;;;15.7;76.5
67345;BME280;54230;52.402;6.276;2023-08-31T06:55:00;100840.0;;;15.8;76.2
67345;BME280;54230;52.402;6.276;2023-08-31T07:00:00;100840.0;;;16.0;75.8
67345;BME280;54230;52.402;6.276;2023-08-31T07:05:00;100840.0;;;16.2;75.3
67345;BME280;54230;52.402;6.276;2023-08-31T07:10:00;100860.0;;;16.5;74.7
67345;BME280;54230;52.402;6.276;2023-08-31T07:15:00;100860.0;;;16.7;73.7
67345;BME280;54230;52.402;6.276;2023-08-31T07:20:00;100860.0;;;16.8;73.0
67345;BME280;54230;52.402;6.276;2023-08-31T07:25:00;100860.0;;;17.0;72.6
67345;BME280;54230;52.402;6.276;2023-08-31T07:30:00;100870.0;;;17.2;71.8
67345;BME280;54230;52.402;6.276;2023-08-31T07:35:00;100870.0;;;17.1;71.5
67345;BME280;54230;52.402;6.276;2023-08-31T07:40:00;100880.0;;;16.9;72.0
67345;BME280;54230;52.402;6.276;2023-08-31T07:45:00;100890.0;;;16.7;72.1
67345;BME280;54230;52.402;6.276;2023-08-31T07:50:00;100890.0;;;16.8;72.8
67345;BME280;54230;52.402;6.276;2023-08-31T07:55:00;100890.0;;;16.9;72.4
67345;BME280;54230;52.402;6.276;2023-08-31T08:00:00;100900.0;;;16.9;72.6
67345;BME280;54230;52.402;6.276;2023-08-31T08:05:00;100900.0;;;17.0;72.5
67345;BME280;54230;52.402;6.276;2023-08-31T08:10:00;100900.0;;;17.2;72.6
67345;BME280;54230;52.402;6.276;2023-08-31T08:15:00;100910.0;;;17.6;71.6
67345;BME280;54230;52.402;6.276;2023-08-31T08:20:00;100910.0;;;17.9;70.4
67345;BME280;54230;52.402;6.276;2023-08-31T08:25:00;100910.0;;;18.0;69.9
67345;BME280;54230;52.402;6.276;2023-08-31T08:30:00;100920.0;;;17.9;69.9
67345;BME280;54230;52.402;6.276;2023-08-31T08:35:00;100930.0;;;17.8;70.0
67345;BME280;54230;52.402;6.276;2023-08-31T08:40:00;100930.0;;;17.7;70.2
67345;BME280;54230;52.402;6.276;2023-08-31T08:45:01;100920.0;;;17.8;70.1
67345;BME280;54230;52.402;6.276;2023-08-31T08:50:00;100930.0;;;18.0;69.7
67345;BME280;54230;52.402;6.276;2023-08-31T08:55:00;100940.0;;;18.5;69.3
67345;BME280;54230;52.402;6.276;2023-08-31T09:00:00;100930.0;;;19.2;67.6
67345;BME280;54230;52.402;6.276;2023-08-31T09:05:00;100940.0;;;19.2;66.4
67345;BME280;54230;52.402;6.276;2023-08-31T09:10:00;100950.0;;;19.3;65.8
67345;BME280;54230;52.402;6.276;2023-08-31T09:15:02;100950.0;;;18.9;65.3
67345;BME280;54230;52.402;6.276;2023-08-31T09:20:01;100960.0;;;19.0;66.2
67345;BME280;54230;52.402;6.276;2023-08-31T09:25:00;100960.0;;;19.0;65.0
67345;BME280;54230;52.402;6.276;2023-08-31T09:30:01;100950.0;;;19.0;65.4
67345;BME280;54230;52.402;6.276;2023-08-31T09:35:00;100950.0;;;19.0;66.0
67345;BME280;54230;52.402;6.276;2023-08-31T09:40:02;100950.0;;;19.0;65.8
67345;BME280;54230;52.402;6.276;2023-08-31T09:45:00;100960.0;;;19.1;65.6
67345;BME280;54230;52.402;6.276;2023-08-31T09:50:01;100960.0;;;19.5;64.6
67345;BME280;54230;52.402;6.276;2023-08-31T09:55:01;100960.0;;;19.9;63.5
67345;BME280;54230;52.402;6.276;2023-08-31T10:00:01;100940.0;;;20.0;63.1
67345;BME280;54230;52.402;6.276;2023-08-31T10:05:00;100950.0;;;20.2;62.9
67345;BME280;54230;52.402;6.276;2023-08-31T10:10:00;100950.0;;;20.2;62.5
67345;BME280;54230;52.402;6.276;2023-08-31T10:15:00;100960.0;;;20.2;59.5
67345;BME280;54230;52.402;6.276;2023-08-31T10:20:00;100970.0;;;19.7;58.9
67345;BME280;54230;52.402;6.276;2023-08-31T10:25:01;100980.0;;;19.5;60.2
67345;BME280;54230;52.402;6.276;2023-08-31T10:35:04;100980.0;;;19.5;62.1
67345;BME280;54230;52.402;6.276;2023-08-31T10:40:08;100990.0;;;19.6;62.8
67345;BME280;54230;52.402;6.276;2023-08-31T10:45:05;100990.0;;;19.6;63.9
67345;BME280;54230;52.402;6.276;2023-08-31T10:50:19;100990.0;;;19.5;63.1
67345;BME280;54230;52.402;6.276;2023-08-31T10:55:04;100990.0;;;19.1;62.3
67345;BME280;54230;52.402;6.276;2023-08-31T11:00:00;100980.0;;;19.1;63.1
67345;BME280;54230;52.402;6.276;2023-08-31T11:05:01;100980.0;;;19.0;63.6
67345;BME280;54230;52.402;6.276;2023-08-31T11:10:11;100980.0;;;19.1;63.9
67345;BME280;54230;52.402;6.276;2023-08-31T11:15:00;100980.0;;;19.2;64.1
67345;BME280;54230;52.402;6.276;2023-08-31T11:20:01;100980.0;;;19.5;63.4
67345;BME280;54230;52.402;6.276;2023-08-31T11:25:00;100980.0;;;19.7;61.4
67345;BME280;54230;52.402;6.276;2023-08-31T11:30:00;100980.0;;;20.0;60.9
67345;BME280;54230;52.402;6.276;2023-08-31T11:35:00;100970.0;;;20.5;59.6
67345;BME280;54230;52.402;6.276;2023-08-31T11:40:00;100980.0;;;21.1;57.9
67345;BME280;54230;52.402;6.276;2023-08-31T11:45:01;100980.0;;;21.4;56.7
67345;BME280;54230;52.402;6.276;2023-08-31T11:50:00;100980.0;;;21.4;55.6
67345;BME280;54230;52.402;6.276;2023-08-31T11:55:00;100980.0;;;21.1;55.4
67345;BME280;54230;52.402;6.276;2023-08-31T12:00:03;100990.0;;;21.0;56.1
67345;BME280;54230;52.402;6.276;2023-08-31T12:05:00;101010.0;;;20.8;60.8
67345;BME280;54230;52.402;6.276;2023-08-31T12:10:02;101000.0;;;20.5;63.5
67345;BME280;54230;52.402;6.276;2023-08-31T12:15:01;101010.0;;;20.7;62.3
67345;BME280;54230;52.402;6.276;2023-08-31T12:20:02;101010.0;;;20.6;62.3
67345;BME280;54230;52.402;6.276;2023-08-31T12:25:00;101010.0;;;20.7;61.1
67345;BME280;54230;52.402;6.276;2023-08-31T12:30:00;101000.0;;;20.9;59.2
67345;BME280;54230;52.402;6.276;2023-08-31T12:35:00;101000.0;;;21.1;58.8
67345;BME280;54230;52.402;6.276;2023-08-31T12:40:00;101010.0;;;21.5;57.6
67345;BME280;54230;52.402;6.276;2023-08-31T12:45:00;101010.0;;;21.8;56.1
67345;BME280;54230;52.402;6.276;2023-08-31T12:50:00;101010.0;;;22.1;54.6
67345;BME280;54230;52.402;6.276;2023-08-31T12:55:00;101020.0;;;22.5;53.4
67345;BME280;54230;52.402;6.276;2023-08-31T13:00:00;101030.0;;;22.1;53.1
67345;BME280;54230;52.402;6.276;2023-08-31T13:05:00;101020.0;;;22.3;52.7
67345;BME280;54230;52.402;6.276;2023-08-31T13:10:00;101010.0;;;22.3;51.3
67345;BME280;54230;52.402;6.276;2023-08-31T13:15:01;101020.0;;;21.9;51.5
67345;BME280;54230;52.402;6.276;2023-08-31T13:20:00;101030.0;;;21.6;53.0
67345;BME280;54230;52.402;6.276;2023-08-31T13:25:00;101040.0;;;20.9;57.4
67345;BME280;54230;52.402;6.276;2023-08-31T13:30:00;101040.0;;;20.0;63.7
67345;BME280;54230;52.402;6.276;2023-08-31T13:35:01;101030.0;;;19.8;65.6
67345;BME280;54230;52.402;6.276;2023-08-31T13:40:00;101030.0;;;20.2;67.3
67345;BME280;54230;52.402;6.276;2023-08-31T13:45:00;101030.0;;;21.0;65.4
67345;BME280;54230;52.402;6.276;2023-08-31T13:50:00;101030.0;;;21.4;60.9
67345;BME280;54230;52.402;6.276;2023-08-31T13:55:00;101030.0;;;21.2;57.4
67345;BME280;54230;52.402;6.276;2023-08-31T14:00:00;101040.0;;;21.2;55.0
67345;BME280;54230;52.402;6.276;2023-08-31T14:05:00;101030.0;;;21.4;55.7
67345;BME280;54230;52.402;6.276;2023-08-31T14:10:00;101030.0;;;22.1;56.0
67345;BME280;54230;52.402;6.276;2023-08-31T14:15:00;101040.0;;;22.5;53.7
67345;BME280;54230;52.402;6.276;2023-08-31T14:20:00;101030.0;;;22.6;52.4
67345;BME280;54230;52.402;6.276;2023-08-31T14:25:00;101040.0;;;23.2;51.7
67345;BME280;54230;52.402;6.276;2023-08-31T14:30:00;101060.0;;;23.8;49.3
67345;BME280;54230;52.402;6.276;2023-08-31T14:35:00;101050.0;;;24.0;47.8
67345;BME280;54230;52.402;6.276;2023-08-31T14:40:00;101050.0;;;24.3;46.5
67345;BME280;54230;52.402;6.276;2023-08-31T14:45:01;101060.0;;;24.3;44.3
67345;BME280;54230;52.402;6.276;2023-08-31T14:50:00;101050.0;;;24.1;43.0
67345;BME280;54230;52.402;6.276;2023-08-31T14:55:00;101060.0;;;24.0;42.2
67345;BME280;54230;52.402;6.276;2023-08-31T15:00:00;101060.0;;;24.0;42.0
67345;BME280;54230;52.402;6.276;2023-08-31T15:05:00;101070.0;;;24.1;42.0
67345;BME280;54230;52.402;6.276;2023-08-31T15:10:00;101070.0;;;23.8;42.9
67345;BME280;54230;52.402;6.276;2023-08-31T15:15:00;101070.0;;;23.8;42.6
67345;BME280;54230;52.402;6.276;2023-08-31T15:20:00;101070.0;;;23.6;42.6
67345;BME280;54230;52.402;6.276;2023-08-31T15:25:00;101070.0;;;23.7;42.6
67345;BME280;54230;52.402;6.276;2023-08-31T15:30:00;101070.0;;;23.9;42.2
67345;BME280;54230;52.402;6.276;2023-08-31T15:35:00;101070.0;;;24.0;41.4
67345;BME280;54230;52.402;6.276;2023-08-31T15:40:00;101080.0;;;24.1;40.9
67345;BME280;54230;52.402;6.276;2023-08-31T15:45:01;101080.0;;;24.3;41.1
67345;BME280;54230;52.402;6.276;2023-08-31T15:50:00;101080.0;;;24.4;40.1
67345;BME280;54230;52.402;6.276;2023-08-31T15:55:03;101080.0;;;24.5;38.8
67345;BME280;54230;52.402;6.276;2023-08-31T16:00:00;101090.0;;;24.6;38.8
67345;BME280;54230;52.402;6.276;2023-08-31T16:05:04;101090.0;;;24.6;38.7
67345;BME280;54230;52.402;6.276;2023-08-31T16:10:01;101090.0;;;24.4;36.7
67345;BME280;54230;52.402;6.276;2023-08-31T16:15:00;101090.0;;;24.3;36.9
67345;BME280;54230;52.402;6.276;2023-08-31T16:20:00;101080.0;;;24.3;37.4
67345;BME280;54230;52.402;6.276;2023-08-31T16:25:00;101090.0;;;24.5;37.8
67345;BME280;54230;52.402;6.276;2023-08-31T16:30:00;101090.0;;;24.4;37.4
67345;BME280;54230;52.402;6.276;2023-08-31T16:35:00;101090.0;;;24.3;37.9
67345;BME280;54230;52.402;6.276;2023-08-31T16:40:00;101090.0;;;24.2;37.5
67345;BME280;54230;52.402;6.276;2023-08-31T16:45:00;101090.0;;;24.2;37.4
67345;BME280;54230;52.402;6.276;2023-08-31T16:50:00;101100.0;;;24.0;37.8
67345;BME280;54230;52.402;6.276;2023-08-31T16:55:00;101100.0;;;23.9;37.5
67345;BME280;54230;52.402;6.276;2023-08-31T17:00:00;101100.0;;;23.9;37.3
67345;BME280;54230;52.402;6.276;2023-08-31T17:05:00;101100.0;;;24.0;37.1
67345;BME280;54230;52.402;6.276;2023-08-31T17:10:00;101100.0;;;23.8;37.8
67345;BME280;54230;52.402;6.276;2023-08-31T17:15:00;101100.0;;;23.7;37.8
67345;BME280;54230;52.402;6.276;2023-08-31T17:20:00;101100.0;;;23.6;37.3
67345;BME280;54230;52.402;6.276;2023-08-31T17:25:00;101100.0;;;23.4;38.3
67345;BME280;54230;52.402;6.276;2023-08-31T17:30:00;101110.0;;;23.3;38.8
67345;BME280;54230;52.402;6.276;2023-08-31T17:35:00;101110.0;;;23.1;39.5
67345;BME280;54230;52.402;6.276;2023-08-31T17:40:00;101110.0;;;22.8;40.4
67345;BME280;54230;52.402;6.276;2023-08-31T17:45:00;101110.0;;;22.5;41.2
67345;BME280;54230;52.402;6.276;2023-08-31T17:50:00;101110.0;;;22.2;42.4
67345;BME280;54230;52.402;6.276;2023-08-31T17:55:00;101120.0;;;21.9;43.1
67345;BME280;54230;52.402;6.276;2023-08-31T18:00:00;101120.0;;;21.6;44.1
67345;BME280;54230;52.402;6.276;2023-08-31T18:05:00;101130.0;;;21.4;45.3
67345;BME280;54230;52.402;6.276;2023-08-31T18:10:00;101130.0;;;21.1;46.4
67345;BME280;54230;52.402;6.276;2023-08-31T18:15:00;101150.0;;;20.7;47.7
67345;BME280;54230;52.402;6.276;2023-08-31T18:20:00;101150.0;;;20.5;48.3
67345;BME280;54230;52.402;6.276;2023-08-31T18:25:00;101160.0;;;20.3;48.9
67345;BME280;54230;52.402;6.276;2023-08-31T18:30:00;101160.0;;;20.2;49.5
67345;BME280;54230;52.402;6.276;2023-08-31T18:35:00;101150.0;;;20.0;50.0
67345;BME280;54230;52.402;6.276;2023-08-31T18:40:00;101160.0;;;19.8;50.5
67345;BME280;54230;52.402;6.276;2023-08-31T18:45:00;101160.0;;;19.7;51.2
67345;BME280;54230;52.402;6.276;2023-08-31T18:50:00;101160.0;;;19.5;51.9
67345;BME280;54230;52.402;6.276;2023-08-31T18:55:00;101160.0;;;19.4;52.7
67345;BME280;54230;52.402;6.276;2023-08-31T19:00:00;101150.0;;;19.2;53.0
67345;BME280;54230;52.402;6.276;2023-08-31T19:05:00;101160.0;;;18.9;54.0
67345;BME280;54230;52.402;6.276;2023-08-31T19:10:00;101160.0;;;18.6;54.8
67345;BME280;54230;52.402;6.276;2023-08-31T19:15:00;101170.0;;;18.6;54.4
67345;BME280;54230;52.402;6.276;2023-08-31T19:20:00;101170.0;;;18.6;54.9
67345;BME280;54230;52.402;6.276;2023-08-31T19:25:00;101180.0;;;18.4;55.6
67345;BME280;54230;52.402;6.276;2023-08-31T19:30:00;101180.0;;;18.2;56.7
67345;BME280;54230;52.402;6.276;2023-08-31T19:35:00;101190.0;;;18.1;56.8
67345;BME280;54230;52.402;6.276;2023-08-31T19:40:00;101180.0;;;18.0;57.2
67345;BME280;54230;52.402;6.276;2023-08-31T19:45:00;101180.0;;;17.9;57.7
67345;BME280;54230;52.402;6.276;2023-08-31T19:50:00;101180.0;;;17.8;58.3
67345;BME280;54230;52.402;6.276;2023-08-31T19:55:00;101190.0;;;17.8;58.5
67345;BME280;54230;52.402;6.276;2023-08-31T20:00:00;101190.0;;;17.8;58.5
67345;BME280;54230;52.402;6.276;2023-08-31T20:05:00;101180.0;;;17.8;59.1
67345;BME280;54230;52.402;6.276;2023-08-31T20:10:00;101180.0;;;17.6;59.6
67345;BME280;54230;52.402;6.276;2023-08-31T20:15:00;101180.0;;;17.7;59.6
67345;BME280;54230;52.402;6.276;2023-08-31T20:20:02;101190.0;;;17.7;59.8
67345;BME280;54230;52.402;6.276;2023-08-31T20:25:00;101190.0;;;17.6;59.8
67345;BME280;54230;52.402;6.276;2023-08-31T20:30:00;101200.0;;;17.5;60.0
67345;BME280;54230;52.402;6.276;2023-08-31T20:35:00;101200.0;;;17.5;59.8
67345;BME280;54230;52.402;6.276;2023-08-31T20:40:01;101200.0;;;17.4;61.0
67345;BME280;54230;52.402;6.276;2023-08-31T20:45:00;101210.0;;;17.2;61.8
67345;BME280;54230;52.402;6.276;2023-08-31T20:50:00;101200.0;;;17.1;62.1
67345;BME280;54230;52.402;6.276;2023-08-31T20:55:00;101200.0;;;17.1;62.4
67345;BME280;54230;52.402;6.276;2023-08-31T21:00:00;101210.0;;;17.1;62.8
67345;BME280;54230;52.402;6.276;2023-08-31T21:05:00;101220.0;;;16.9;63.5
67345;BME280;54230;52.402;6.276;2023-08-31T21:10:00;101220.0;;;16.9;63.0
67345;BME280;54230;52.402;6.276;2023-08-31T21:15:00;101220.0;;;16.7;64.5
67345;BME280;54230;52.402;6.276;2023-08-31T21:20:00;101220.0;;;16.7;64.6
67345;BME280;54230;52.402;6.276;2023-08-31T21:25:00;101220.0;;;16.7;64.9
67345;BME280;54230;52.402;6.276;2023-08-31T21:30:00;101210.0;;;16.9;64.4
67345;BME280;54230;52.402;6.276;2023-08-31T21:35:00;101210.0;;;16.9;64.6
67345;BME280;54230;52.402;6.276;2023-08-31T21:40:00;101200.0;;;17.1;63.3
67345;BME280;54230;52.402;6.276;2023-08-31T21:45:00;101200.0;;;17.0;64.4
67345;BME280;54230;52.402;6.276;2023-08-31T21:50:00;101200.0;;;17.0;64.2
67345;BME280;54230;52.402;6.276;2023-08-31T21:55:00;101210.0;;;16.6;65.5
67345;BME280;54230;52.402;6.276;2023-08-31T22:00:00;101210.0;;;16.6;65.2
67345;BME280;54230;52.402;6.276;2023-08-31T22:05:00;101220.0;;;16.5;65.6
67345;BME280;54230;52.402;6.276;2023-08-31T22:10:00;101220.0;;;16.7;64.9
67345;BME280;54230;52.402;6.276;2023-08-31T22:15:01;101210.0;;;16.6;65.2
67345;BME280;54230;52.402;6.276;2023-08-31T22:20:00;101210.0;;;16.6;65.8
67345;BME280;54230;52.402;6.276;2023-08-31T22:25:00;101220.0;;;16.7;65.3
67345;BME280;54230;52.402;6.276;2023-08-31T22:30:00;101220.0;;;16.8;65.3
67345;BME280;54230;52.402;6.276;2023-08-31T22:35:00;101220.0;;;16.8;65.3
67345;BME280;54230;52.402;6.276;2023-08-31T22:40:00;101220.0;;;16.8;65.9
67345;BME280;54230;52.402;6.276;2023-08-31T22:45:00;101220.0;;;16.7;66.4
67345;BME280;54230;52.402;6.276;2023-08-31T22:50:02;101230.0;;;16.7;66.1
67345;BME280;54230;52.402;6.276;2023-08-31T22:55:00;101230.0;;;16.8;65.8
67345;BME280;54230;52.402;6.276;2023-08-31T23:00:00;101230.0;;;17.0;65.3
67345;BME280;54230;52.402;6.276;2023-08-31T23:05:00;101230.0;;;16.9;65.3
67345;BME280;54230;52.402;6.276;2023-08-31T23:10:00;101230.0;;;17.0;65.2
67345;BME280;54230;52.402;6.276;2023-08-31T23:15:00;101220.0;;;16.9;65.7
67345;BME280;54230;52.402;6.276;2023-08-31T23:20:00;101210.0;;;16.8;65.9
67345;BME280;54230;52.402;6.276;2023-08-31T23:25:00;101220.0;;;16.8;65.7
67345;BME280;54230;52.402;6.276;2023-08-31T23:30:00;101210.0;;;16.7;66.1
67345;BME280;54230;52.402;6.276;2023-08-31T23:35:00;101200.0;;;16.6;66.4
67345;BME280;54230;52.402;6.276;2023-08-31T23:40:00;101200.0;;;16.4;67.3
67345;BME280;54230;52.402;6.276;2023-08-31T23:45:00;101200.0;;;16.2;68.0
67345;BME280;54230;52.402;6.276;2023-08-31T23:50:00;101190.0;;;16.3;67.3
67345;BME280;54230;52.402;6.276;2023-08-31T23:55:00;101200.0;;;16.2;68.1
